F/V Fleur Des Vagues — FPEJ — position and weather

sailwx.info

Track history (hours):
 
Tides and Currents Weather Stations Pressure Air Temp Water Temp Dewpoint Dewpoint Depression Visibility Wind Speed Wind Dir Waves Ship Positions

F/V Fleur Des Vagues

Last reported at 2014-Aug-29 17:33 UTC. Time now 2014-Aug-29 18:24 UTC.
Position N 46°30' W 001°47'.

Length 16 m.

Type: Fishing. MMSI: 227893000.

Date/timePositionNaut miles runAvg speedWind from/ knotsBaromVisibWave heightAir tempDewpointWater temp
2014-Aug-29 17:33N 46°30' W 001°47'0 0.0
2014-Aug-29 16:33N 46°30' W 001°47'0 0.0
2014-Aug-29 15:33N 46°30' W 001°47'0 0.0
2014-Aug-29 14:33N 46°30' W 001°47'0 0.0
2014-Aug-29 13:33N 46°30' W 001°47'0 0.0
2014-Aug-29 12:33N 46°30' W 001°47'0 0.0
2014-Aug-29 11:33N 46°30' W 001°47'5 5.1
2014-Aug-29 10:33N 46°25' W 001°51'2 2.2
2014-Aug-29 09:34N 46°23' W 001°50'2 2.0
2014-Aug-29 08:33N 46°25' W 001°50'5 5.2
2014-Aug-29 07:33N 46°30' W 001°47'0 0.1
2014-Aug-29 06:33N 46°30' W 001°47'0 0.0
2014-Aug-28 21:28N 46°30' W 001°47'0 0.0
2014-Aug-28 20:33N 46°30' W 001°47'  
2014-Aug-25 09:25N 46°30' W 001°47'0 0.0
2014-Aug-25 08:34N 46°30' W 001°47'6 6.5
2014-Aug-25 07:34N 46°28' W 001°56'4 3.8
2014-Aug-25 06:34N 46°29' W 002°01'0 0.4
2014-Aug-25 05:33N 46°29' W 002°01'1 0.9
2014-Aug-25 04:33N 46°29' W 002°01'2 1.7
2014-Aug-25 03:34N 46°30' W 002°03'2 2.1
2014-Aug-25 02:34N 46°28' W 002°02'2 2.0
2014-Aug-25 01:33N 46°30' W 002°00'1 0.6
2014-Aug-25 00:33N 46°29' W 002°01'1 1.2
2014-Aug-24 23:34N 46°28' W 001°59'0 0.0
2014-Aug-24 22:33N 46°28' W 001°59'0 0.0
2014-Aug-24 21:33N 46°28' W 001°59'0 0.0
2014-Aug-24 20:34N 46°28' W 001°60'0 0.0
2014-Aug-24 19:34N 46°28' W 001°60'0 0.1
2014-Aug-24 18:34N 46°28' W 001°59'0 0.0
2014-Aug-24 17:34N 46°28' W 001°59'0 0.0
2014-Aug-24 16:34N 46°28' W 001°59'0 0.1
2014-Aug-24 15:33N 46°28' W 001°59'0 0.0
2014-Aug-24 14:33N 46°28' W 001°59'0 0.0
2014-Aug-24 13:34N 46°28' W 001°59'0 0.0
2014-Aug-24 12:34N 46°28' W 001°59'0 0.1
2014-Aug-24 11:34N 46°28' W 001°60'3 2.5
2014-Aug-24 10:34N 46°30' W 002°02'3 2.7
2014-Aug-24 09:33N 46°28' W 002°01'9 8.9
2014-Aug-24 08:34N 46°21' W 001°53'6 5.6
2014-Aug-24 07:30N 46°16' W 001°48'2 2.2
2014-Aug-24 06:34N 46°15' W 001°51'2 2.3
2014-Aug-24 05:33N 46°16' W 001°48'2 1.6
2014-Aug-24 04:33N 46°15' W 001°50'1 0.8
2014-Aug-24 03:33N 46°15' W 001°49'0 0.4
2014-Aug-24 02:28N 46°15' W 001°49'1 1.2
2014-Aug-24 01:33N 46°14' W 001°49'2 1.7
2014-Aug-24 00:34N 46°15' W 001°47'0 0.1
2014-Aug-23 23:33N 46°15' W 001°47'0 0.0
2014-Aug-23 22:34N 46°15' W 001°47'0 0.1
2014-Aug-23 21:34N 46°15' W 001°47'0 0.0
2014-Aug-23 20:34N 46°15' W 001°47'0 0.0
2014-Aug-23 19:33N 46°15' W 001°47'  
Track history (hours):
 
Tides and Currents Weather Stations Pressure Air Temp Water Temp Dewpoint Dewpoint Depression Visibility Wind Speed Wind Dir Waves Ship Positions

F/V Fleur Des Vagues

Last reported at 2014-Aug-29 17:33 UTC. Time now 2014-Aug-29 18:24 UTC.
Position N 46°30' W 001°47'.

Length 16 m.

Type: Fishing. MMSI: 227893000.

Date/timePositionNaut miles runAvg speedWind from/ knotsBaromVisibWave heightAir tempDewpointWater temp
2014-Aug-29 17:33N 46°30' W 001°47'0 0.0
2014-Aug-29 16:33N 46°30' W 001°47'0 0.0
2014-Aug-29 15:33N 46°30' W 001°47'0 0.0
2014-Aug-29 14:33N 46°30' W 001°47'0 0.0
2014-Aug-29 13:33N 46°30' W 001°47'0 0.0
2014-Aug-29 12:33N 46°30' W 001°47'0 0.0
2014-Aug-29 11:33N 46°30' W 001°47'5 5.1
2014-Aug-29 10:33N 46°25' W 001°51'2 2.2
2014-Aug-29 09:34N 46°23' W 001°50'2 2.0
2014-Aug-29 08:33N 46°25' W 001°50'5 5.2
2014-Aug-29 07:33N 46°30' W 001°47'0 0.1
2014-Aug-29 06:33N 46°30' W 001°47'0 0.0
2014-Aug-28 21:28N 46°30' W 001°47'0 0.0
2014-Aug-28 20:33N 46°30' W 001°47'  
2014-Aug-25 09:25N 46°30' W 001°47'0 0.0
2014-Aug-25 08:34N 46°30' W 001°47'6 6.5
2014-Aug-25 07:34N 46°28' W 001°56'4 3.8
2014-Aug-25 06:34N 46°29' W 002°01'0 0.4
2014-Aug-25 05:33N 46°29' W 002°01'1 0.9
2014-Aug-25 04:33N 46°29' W 002°01'2 1.7
2014-Aug-25 03:34N 46°30' W 002°03'2 2.1
2014-Aug-25 02:34N 46°28' W 002°02'2 2.0
2014-Aug-25 01:33N 46°30' W 002°00'1 0.6
2014-Aug-25 00:33N 46°29' W 002°01'1 1.2
2014-Aug-24 23:34N 46°28' W 001°59'0 0.0
2014-Aug-24 22:33N 46°28' W 001°59'0 0.0
2014-Aug-24 21:33N 46°28' W 001°59'0 0.0
2014-Aug-24 20:34N 46°28' W 001°60'0 0.0
2014-Aug-24 19:34N 46°28' W 001°60'0 0.1
2014-Aug-24 18:34N 46°28' W 001°59'0 0.0
2014-Aug-24 17:34N 46°28' W 001°59'0 0.0
2014-Aug-24 16:34N 46°28' W 001°59'0 0.1
2014-Aug-24 15:33N 46°28' W 001°59'0 0.0
2014-Aug-24 14:33N 46°28' W 001°59'0 0.0
2014-Aug-24 13:34N 46°28' W 001°59'0 0.0
2014-Aug-24 12:34N 46°28' W 001°59'0 0.1
2014-Aug-24 11:34N 46°28' W 001°60'3 2.5
2014-Aug-24 10:34N 46°30' W 002°02'3 2.7
2014-Aug-24 09:33N 46°28' W 002°01'9 8.9
2014-Aug-24 08:34N 46°21' W 001°53'6 5.6
2014-Aug-24 07:30N 46°16' W 001°48'2 2.2
2014-Aug-24 06:34N 46°15' W 001°51'2 2.3
2014-Aug-24 05:33N 46°16' W 001°48'2 1.6
2014-Aug-24 04:33N 46°15' W 001°50'1 0.8
2014-Aug-24 03:33N 46°15' W 001°49'0 0.4
2014-Aug-24 02:28N 46°15' W 001°49'1 1.2
2014-Aug-24 01:33N 46°14' W 001°49'2 1.7
2014-Aug-24 00:34N 46°15' W 001°47'0 0.1
2014-Aug-23 23:33N 46°15' W 001°47'0 0.0
2014-Aug-23 22:34N 46°15' W 001°47'0 0.1
2014-Aug-23 21:34N 46°15' W 001°47'0 0.0
2014-Aug-23 20:34N 46°15' W 001°47'0 0.0
2014-Aug-23 19:33N 46°15' W 001°47'  

Dump ship's entire track history